ΕΜΥ, Εθνική Μετεωρολογική Υπηρεσία - Δελτία Καιρού, Προγνώσεις

ΑΕΡΟΝΑΥΤΙΛΙΑ

GREEK AIRPORTS CODES

LGHI 291050Z 25007KT 9999 FEW020 28/17 Q1012=

EUROPEAN AIRPORTS CODES

LCLK 291130Z 22012KT 9999 FEW035 35/23 Q1011 NOSIG=